createdAt,value
2022-09-06T00:01:23.579Z,100207.78
2022-09-06T00:03:50.839Z,100138.06
2022-09-06T00:06:19.758Z,100201.72
2022-09-06T00:08:47.926Z,100200.22
2022-09-06T00:11:17.278Z,100200.59
2022-09-06T00:13:44.965Z,100205.03
2022-09-06T00:16:21.067Z,100228.47
2022-09-06T00:18:47.945Z,100167.59
2022-09-06T00:21:23.339Z,100183.31
2022-09-06T00:23:50.531Z,100105.03
2022-09-06T00:26:17.918Z,100072.22
2022-09-06T00:28:45.327Z,100199.47
2022-09-06T00:31:15.258Z,100208.19
2022-09-06T00:33:42.468Z,100176.34
2022-09-06T00:36:10.651Z,100209.16
2022-09-06T00:38:38.357Z,100208.56
2022-09-06T00:41:07.280Z,100207.06
2022-09-06T00:43:34.380Z,100172.69
2022-09-06T00:46:02.492Z,100143.66
2022-09-06T00:48:29.419Z,100175.69
2022-09-06T00:51:01.435Z,100173.91
2022-09-06T00:53:28.655Z,100209.41
2022-09-06T00:55:56.027Z,100066.06
2022-09-06T00:58:23.851Z,100204.19
2022-09-06T01:00:50.886Z,100208.56
2022-09-06T01:03:19.101Z,100205.78
2022-09-06T01:05:52.689Z,100207.47
2022-09-06T01:08:27.281Z,100200.84
2022-09-06T01:11:33.406Z,100195.22
2022-09-06T01:14:15.445Z,100202.09
2022-09-06T01:16:52.034Z,100078.78
2022-09-06T01:19:52.442Z,100212.34
2022-09-06T01:22:40.978Z,100196.16
2022-09-06T01:25:25.697Z,100195.06
2022-09-06T01:28:20.207Z,100198.16
2022-09-06T01:31:03.136Z,100210.16
2022-09-06T01:33:43.517Z,100203.34
2022-09-06T01:36:15.807Z,100153.38
2022-09-06T01:38:42.808Z,100154.88
2022-09-06T01:41:10.636Z,100199.19
2022-09-06T01:43:41.291Z,100061.84
2022-09-06T01:46:20.590Z,100195.75
2022-09-06T01:49:01.061Z,100088.59
2022-09-06T01:51:46.363Z,100199.56
2022-09-06T01:55:10.264Z,100196.31
2022-09-06T01:57:48.711Z,100199.84
2022-09-06T02:00:18.156Z,100182.31
2022-09-06T02:02:50.724Z,100207.81
2022-09-06T02:05:24.088Z,100207.66
2022-09-06T02:07:54.571Z,100194.72
2022-09-06T02:10:27.255Z,100224.59
2022-09-06T02:12:57.580Z,100199.41
2022-09-06T02:15:31.321Z,100202.69
2022-09-06T02:18:06.570Z,100194.97
2022-09-06T02:20:36.720Z,100051.44
2022-09-06T02:23:08.322Z,100090.41
2022-09-06T02:25:38.954Z,100200.19
2022-09-06T02:28:08.334Z,100145.50
2022-09-06T02:30:39.933Z,100203.38
2022-09-06T02:33:18.548Z,100193.13
2022-09-06T02:35:49.735Z,100198.00
2022-09-06T02:38:17.816Z,100199.84
2022-09-06T02:40:46.244Z,100250.34
2022-09-06T02:43:13.054Z,100198.78
2022-09-06T02:45:39.902Z,100159.25
2022-09-06T02:48:06.846Z,100184.59
2022-09-06T02:50:33.708Z,100121.50
2022-09-06T02:53:05.355Z,100167.88
2022-09-06T02:55:32.947Z,100155.72
2022-09-06T02:57:59.810Z,100195.91
2022-09-06T03:00:27.545Z,100005.56
2022-09-06T03:02:55.752Z,100206.63
2022-09-06T03:05:23.964Z,100200.66
2022-09-06T03:07:51.208Z,100202.34
2022-09-06T03:10:21.354Z,100167.63
2022-09-06T03:12:48.809Z,100196.16
2022-09-06T03:15:16.676Z,100196.22
2022-09-06T03:17:44.370Z,100206.72
2022-09-06T03:20:12.204Z,100204.38
2022-09-06T03:22:39.822Z,100207.06
2022-09-06T03:25:07.966Z,100104.78
2022-09-06T03:27:34.940Z,100209.31
2022-09-06T03:30:01.875Z,100167.81
2022-09-06T03:32:28.729Z,99898.88
2022-09-06T03:34:55.768Z,100198.41
2022-09-06T03:37:22.547Z,100062.84
2022-09-06T03:39:49.453Z,100099.91
2022-09-06T03:42:16.361Z,99914.91
2022-09-06T03:44:43.174Z,100209.25
2022-09-06T03:47:10.010Z,100066.56
2022-09-06T03:49:36.784Z,100179.13
2022-09-06T03:52:03.737Z,100213.69
2022-09-06T03:54:30.915Z,100193.47
2022-09-06T03:56:57.735Z,100213.78
2022-09-06T03:59:24.499Z,100217.13
2022-09-06T04:01:51.325Z,100210.91
2022-09-06T04:04:18.201Z,100210.91
2022-09-06T04:06:44.950Z,100058.84
2022-09-06T04:09:11.722Z,100114.13
2022-09-06T04:11:38.593Z,100207.56
2022-09-06T04:14:05.409Z,100203.28
2022-09-06T04:16:32.256Z,100133.53
2022-09-06T04:19:00.845Z,100244.53
2022-09-06T04:21:27.660Z,100201.72
2022-09-06T04:23:54.399Z,100198.94
2022-09-06T04:26:21.374Z,100198.50
2022-09-06T04:28:48.310Z,100193.88
2022-09-06T04:31:15.073Z,100197.81
2022-09-06T04:33:42.021Z,100201.81
2022-09-06T04:36:10.763Z,100195.69
2022-09-06T04:38:40.321Z,100190.75
2022-09-06T04:41:07.979Z,100126.31
2022-09-06T04:43:34.824Z,100093.03
2022-09-06T04:46:15.770Z,100159.22
2022-09-06T04:48:42.632Z,100172.53
2022-09-06T04:51:09.399Z,100159.41
2022-09-06T04:53:36.362Z,100124.53
2022-09-06T04:56:03.223Z,100197.22
2022-09-06T04:58:30.061Z,100195.19
2022-09-06T05:00:56.890Z,100200.03
2022-09-06T05:03:24.031Z,100088.28
2022-09-06T05:05:50.847Z,100212.28
2022-09-06T05:08:17.830Z,100199.69
2022-09-06T05:10:44.623Z,100167.56
2022-09-06T05:13:11.425Z,100166.63
2022-09-06T05:15:38.270Z,100079.66
2022-09-06T05:18:06.614Z,100194.19
2022-09-06T05:20:33.453Z,100205.06
2022-09-06T05:23:00.373Z,100100.00
2022-09-06T05:25:27.177Z,100202.00
2022-09-06T05:27:54.073Z,100098.50
2022-09-06T05:30:21.335Z,99999.97
2022-09-06T05:32:48.200Z,100206.06
2022-09-06T05:35:15.169Z,100044.50
2022-09-06T05:37:41.963Z,100171.19
2022-09-06T05:40:09.416Z,100007.13
2022-09-06T05:42:36.389Z,100003.50
2022-09-06T05:45:03.446Z,100211.34
2022-09-06T05:47:34.354Z,100152.28
2022-09-06T05:50:05.024Z,100205.38
2022-09-06T05:52:33.044Z,100181.81
2022-09-06T05:55:01.927Z,100184.72
2022-09-06T05:57:28.704Z,100203.03
2022-09-06T05:59:55.813Z,100026.19
2022-09-06T06:02:23.462Z,99930.56
2022-09-06T06:04:50.603Z,100224.38
2022-09-06T06:07:17.983Z,100213.22
2022-09-06T06:09:44.817Z,100154.63
2022-09-06T06:12:11.732Z,100203.34
2022-09-06T06:14:38.434Z,100167.38
2022-09-06T06:17:05.182Z,100079.97
2022-09-06T06:19:31.990Z,100034.47
2022-09-06T06:21:58.962Z,100031.25
2022-09-06T06:24:26.039Z,100066.28
2022-09-06T06:26:52.969Z,100204.63
2022-09-06T06:29:19.844Z,100208.38
2022-09-06T06:31:46.689Z,100107.81
2022-09-06T06:34:13.490Z,100213.59
2022-09-06T06:36:40.668Z,100214.59
2022-09-06T06:39:08.677Z,100217.66
2022-09-06T06:41:35.849Z,100218.19
2022-09-06T06:44:04.693Z,100169.41
2022-09-06T06:46:34.464Z,100214.53
2022-09-06T06:49:01.214Z,100099.69
2022-09-06T06:51:31.199Z,100169.38
2022-09-06T06:53:58.656Z,100063.25
2022-09-06T06:56:27.805Z,100210.78
2022-09-06T06:59:00.444Z,100246.72
2022-09-06T07:01:30.104Z,100243.19
2022-09-06T07:03:58.447Z,100212.34
2022-09-06T07:09:15.857Z,100020.06
2022-09-06T07:11:42.668Z,100215.13
2022-09-06T07:14:09.841Z,100218.78
2022-09-06T07:16:36.810Z,100222.44
2022-09-06T07:19:03.968Z,100225.06
2022-09-06T07:21:38.378Z,100229.66
2022-09-06T07:24:10.409Z,100222.34
2022-09-06T07:26:39.565Z,100197.78
2022-09-06T07:29:08.033Z,100226.09
2022-09-06T07:34:25.802Z,100197.25
2022-09-06T07:36:54.004Z,100193.03
2022-09-06T07:39:21.045Z,100183.84
2022-09-06T07:41:48.135Z,100223.53
2022-09-06T07:44:15.596Z,100206.03
2022-09-06T07:46:42.750Z,100185.53
2022-09-06T07:49:09.561Z,100219.34
2022-09-06T07:51:36.496Z,100172.34
2022-09-06T07:56:50.423Z,100145.88
2022-09-06T07:59:17.242Z,100217.72
2022-09-06T08:01:44.093Z,100217.59
2022-09-06T08:04:13.966Z,100198.44
2022-09-06T08:09:36.886Z,100219.34
2022-09-06T08:12:07.406Z,100163.47
2022-09-06T08:14:34.940Z,100209.13
2022-09-06T08:17:02.865Z,100175.31
2022-09-06T08:19:29.731Z,100201.13
2022-09-06T08:21:56.766Z,100091.31
2022-09-06T08:24:23.607Z,100174.75
2022-09-06T08:26:50.419Z,100115.16
2022-09-06T08:29:17.213Z,100204.59
2022-09-06T08:31:46.250Z,99946.13
2022-09-06T08:34:14.352Z,100070.88
2022-09-06T08:36:41.732Z,100199.94
2022-09-06T08:39:10.146Z,100197.66
2022-09-06T08:41:52.051Z,100196.84
2022-09-06T08:47:18.579Z,100112.13
2022-09-06T08:49:58.195Z,100135.84
2022-09-06T08:52:49.496Z,100197.47
2022-09-06T08:55:40.805Z,100013.66
2022-09-06T08:58:17.883Z,100138.63
2022-09-06T09:00:52.176Z,100090.13
2022-09-06T09:03:23.691Z,100068.63
2022-09-06T09:05:53.946Z,100185.63
2022-09-06T09:08:40.022Z,100175.19
2022-09-06T09:11:11.440Z,100213.91
2022-09-06T09:13:47.420Z,100169.97
2022-09-06T09:16:18.233Z,100139.97
2022-09-06T09:18:52.513Z,100054.16
2022-09-06T09:21:30.148Z,100123.91
2022-09-06T09:24:03.185Z,100117.13
2022-09-06T09:26:36.911Z,100161.50
2022-09-06T09:29:06.663Z,100161.47
2022-09-06T09:31:53.742Z,100163.50
2022-09-06T09:34:40.474Z,100126.75
2022-09-06T09:40:39.833Z,100163.13
2022-09-06T09:43:38.191Z,100061.25
2022-09-06T09:46:23.370Z,100160.25
2022-09-06T09:49:29.491Z,100164.59
2022-09-06T09:52:16.125Z,100139.19
2022-09-06T09:55:03.691Z,100138.69
2022-09-06T09:57:54.262Z,100000.91
2022-09-06T10:00:43.055Z,100166.88
2022-09-06T10:03:31.231Z,99953.44
2022-09-06T10:06:02.645Z,100142.81
2022-09-06T10:08:33.624Z,100149.94
2022-09-06T10:11:38.883Z,100154.88
2022-09-06T10:14:25.459Z,100152.28
2022-09-06T10:16:52.319Z,100157.34
2022-09-06T10:19:30.848Z,100154.09
2022-09-06T10:22:20.169Z,100009.72
2022-09-06T10:25:14.582Z,100152.53
2022-09-06T10:28:10.443Z,100105.50
2022-09-06T10:31:11.337Z,100150.44
2022-09-06T10:33:56.222Z,100149.56
2022-09-06T10:36:32.968Z,100115.41
2022-09-06T10:39:04.437Z,100090.09
2022-09-06T10:42:01.366Z,100092.66
2022-09-06T10:44:53.691Z,100142.41
2022-09-06T10:47:22.602Z,100136.41
2022-09-06T10:49:55.292Z,100147.72
2022-09-06T10:52:29.054Z,100085.09
2022-09-06T10:55:03.631Z,100138.56
2022-09-06T11:00:38.366Z,100151.84
2022-09-06T11:06:28.149Z,100077.72
2022-09-06T11:09:07.565Z,100138.50
2022-09-06T11:11:55.832Z,100130.16
2022-09-06T11:14:25.508Z,100141.13
2022-09-06T11:17:14.876Z,100165.50
2022-09-06T11:19:45.181Z,99981.44
2022-09-06T11:22:31.996Z,100112.53
2022-09-06T11:25:10.713Z,100136.63
2022-09-06T11:27:45.264Z,100086.88
2022-09-06T11:30:17.510Z,100137.91
2022-09-06T11:32:50.405Z,100068.50
2022-09-06T11:35:29.353Z,100048.69
2022-09-06T11:38:26.507Z,100126.06
2022-09-06T11:41:02.585Z,100125.59
2022-09-06T11:43:50.254Z,99813.84
2022-09-06T11:46:35.961Z,100123.69
2022-09-06T11:49:06.879Z,100123.81
2022-09-06T11:51:54.021Z,100125.13
2022-09-06T11:54:23.597Z,100118.56
2022-09-06T11:57:00.103Z,100018.38
2022-09-06T11:59:43.995Z,100054.72
2022-09-06T12:02:32.083Z,100113.69
2022-09-06T12:05:00.498Z,100108.09
2022-09-06T12:07:29.589Z,100075.41
2022-09-06T12:09:56.236Z,100103.88
2022-09-06T12:12:40.577Z,100019.91
2022-09-06T12:15:26.941Z,100101.53
2022-09-06T12:17:54.136Z,100019.47
2022-09-06T12:20:48.865Z,100092.13
2022-09-06T12:23:37.178Z,100088.56
2022-09-06T12:26:07.890Z,99976.63
2022-09-06T12:28:39.624Z,100086.38
2022-09-06T12:31:29.750Z,100086.31
2022-09-06T12:33:58.415Z,100083.31
2022-09-06T12:36:33.552Z,100013.81
2022-09-06T12:39:02.270Z,100077.34
2022-09-06T12:41:41.757Z,100075.88
2022-09-06T12:44:12.798Z,100001.22
2022-09-06T12:46:47.386Z,100032.69
2022-09-06T12:49:17.769Z,100022.31
2022-09-06T12:51:44.638Z,100066.03
2022-09-06T12:54:24.793Z,99989.34
2022-09-06T12:56:52.644Z,100056.50
2022-09-06T12:59:24.991Z,99927.09
2022-09-06T13:02:08.639Z,100108.03
2022-09-06T13:04:52.134Z,100016.56
2022-09-06T13:07:23.009Z,100112.88
2022-09-06T13:09:52.790Z,100046.78
2022-09-06T13:12:29.564Z,100046.47
2022-09-06T13:15:00.304Z,100068.75
2022-09-06T13:17:29.308Z,100081.88
2022-09-06T13:19:58.222Z,100023.84
2022-09-06T13:22:50.721Z,100043.28
2022-09-06T13:25:21.011Z,100040.53
2022-09-06T13:27:57.546Z,100039.25
2022-09-06T13:30:49.934Z,100020.75
2022-09-06T13:33:25.889Z,99890.28
2022-09-06T13:36:30.722Z,99974.78
2022-09-06T13:38:58.020Z,100035.78
2022-09-06T13:41:24.635Z,100037.56
2022-09-06T13:44:06.925Z,99952.78
2022-09-06T13:46:36.113Z,99921.22
2022-09-06T13:49:03.543Z,99964.09
2022-09-06T13:51:30.275Z,100026.25
2022-09-06T13:54:07.902Z,100024.47
2022-09-06T13:56:35.228Z,100006.34
2022-09-06T13:59:02.477Z,99896.59
2022-09-06T14:01:29.934Z,100019.31
2022-09-06T14:03:56.620Z,100008.91
2022-09-06T14:06:23.708Z,99813.63
2022-09-06T14:09:06.298Z,100017.50
2022-09-06T14:11:34.929Z,100012.97
2022-09-06T14:14:01.888Z,100019.81
2022-09-06T14:16:28.701Z,99974.44
2022-09-06T14:18:55.492Z,99983.66
2022-09-06T14:21:22.452Z,99928.56
2022-09-06T14:23:52.623Z,100007.41
2022-09-06T14:26:21.515Z,99912.75
2022-09-06T14:28:50.073Z,99985.09
2022-09-06T14:31:26.192Z,100050.31
2022-09-06T14:33:54.360Z,100001.53
2022-09-06T14:36:25.161Z,100005.31
2022-09-06T14:38:52.724Z,99912.09
2022-09-06T14:41:20.168Z,99855.91
2022-09-06T14:43:52.252Z,99988.25
2022-09-06T14:46:20.587Z,99975.97
2022-09-06T14:48:47.523Z,100005.25
2022-09-06T14:51:22.013Z,100026.31
2022-09-06T14:53:51.948Z,99996.53
2022-09-06T14:56:19.996Z,99931.69
2022-09-06T14:58:46.913Z,100005.13
2022-09-06T15:01:19.552Z,99887.13
2022-09-06T15:03:51.422Z,100001.63
2022-09-06T15:06:20.041Z,99996.09
2022-09-06T15:08:48.528Z,99932.31
2022-09-06T15:11:27.256Z,99976.91
2022-09-06T15:13:53.803Z,99814.81
2022-09-06T15:16:20.343Z,99961.03
2022-09-06T15:18:46.928Z,99983.38
2022-09-06T15:21:16.465Z,99992.59
2022-09-06T15:23:44.038Z,99982.38
2022-09-06T15:26:12.335Z,99683.41
2022-09-06T15:28:40.192Z,99980.78
2022-09-06T15:31:08.259Z,99960.75
2022-09-06T15:33:36.721Z,99985.34
2022-09-06T15:36:06.403Z,99978.69
2022-09-06T15:38:34.308Z,99978.41
2022-09-06T15:41:15.583Z,99979.88
2022-09-06T15:43:47.094Z,99968.25
2022-09-06T15:46:15.554Z,99934.50
2022-09-06T15:48:44.881Z,99696.75
2022-09-06T15:51:13.795Z,99916.56
2022-09-06T15:53:40.673Z,99962.34
2022-09-06T15:56:08.834Z,99901.34
2022-09-06T15:58:35.811Z,99813.00
2022-09-06T16:01:04.530Z,99944.84
2022-09-06T16:03:31.994Z,99869.84
2022-09-06T16:09:04.028Z,99966.16
2022-09-06T16:11:32.713Z,99932.34
2022-09-06T16:13:59.310Z,100008.81
2022-09-06T16:16:26.045Z,99940.59
2022-09-06T16:18:52.619Z,99966.50
2022-09-06T16:21:24.019Z,99995.22
2022-09-06T16:23:58.934Z,99905.16
2022-09-06T16:26:28.222Z,99946.34
2022-09-06T16:28:54.896Z,99615.28
2022-09-06T16:31:22.258Z,99959.91
2022-09-06T16:33:49.768Z,99829.22
2022-09-06T16:36:18.775Z,99889.13
2022-09-06T16:38:46.353Z,99950.75
2022-09-06T16:41:17.216Z,99951.81
2022-09-06T16:43:45.261Z,99947.31
2022-09-06T16:46:12.820Z,99863.75
2022-09-06T16:48:40.644Z,99834.13
2022-09-06T16:51:16.328Z,99889.81
2022-09-06T16:53:45.363Z,99987.81
2022-09-06T16:56:15.537Z,99923.22
2022-09-06T16:58:42.900Z,99945.16
2022-09-06T17:01:10.211Z,99960.28
2022-09-06T17:03:37.517Z,99923.81
2022-09-06T17:06:04.379Z,99917.69
2022-09-06T17:08:32.788Z,99652.88
2022-09-06T17:11:04.583Z,99913.81
2022-09-06T17:13:33.166Z,99950.44
2022-09-06T17:16:22.026Z,99939.47
2022-09-06T17:18:50.278Z,99945.94
2022-09-06T17:21:16.784Z,99950.78
2022-09-06T17:23:43.546Z,99931.38
2022-09-06T17:26:10.534Z,99949.41
2022-09-06T17:28:40.547Z,99942.72
2022-09-06T17:31:07.923Z,99978.56
2022-09-06T17:33:36.099Z,99997.72
2022-09-06T17:36:17.665Z,99977.22
2022-09-06T17:38:51.085Z,99944.00
2022-09-06T17:41:25.275Z,99857.50
2022-09-06T17:43:55.450Z,99945.78
2022-09-06T17:46:27.792Z,99947.75
2022-09-06T17:48:55.361Z,99923.72
2022-09-06T17:51:21.888Z,99954.38
2022-09-06T17:53:48.472Z,99943.50
2022-09-06T17:56:17.661Z,99932.69
2022-09-06T17:58:53.375Z,99858.38
2022-09-06T18:01:20.061Z,99953.50
2022-09-06T18:03:48.268Z,99959.06
2022-09-06T18:06:22.820Z,99960.00
2022-09-06T18:08:53.059Z,100007.41
2022-09-06T18:11:24.582Z,99958.88
2022-09-06T18:13:58.652Z,99941.81
2022-09-06T18:16:26.088Z,99837.19
2022-09-06T18:18:55.078Z,99834.84
2022-09-06T18:21:22.495Z,99953.63
2022-09-06T18:23:49.037Z,99876.03
2022-09-06T18:26:16.885Z,99960.59
2022-09-06T18:28:44.208Z,99751.19
2022-09-06T18:31:13.642Z,99967.22
2022-09-06T18:33:42.348Z,99883.63
2022-09-06T18:36:10.946Z,99969.34
2022-09-06T18:38:39.347Z,99927.09
2022-09-06T18:41:09.385Z,99903.41
2022-09-06T18:43:39.727Z,99920.69
2022-09-06T18:46:08.119Z,99965.91
2022-09-06T18:48:39.162Z,99958.38
2022-09-06T18:51:07.135Z,99699.13
2022-09-06T18:53:35.187Z,99955.88
2022-09-06T18:56:02.169Z,99690.63
2022-09-06T18:58:29.037Z,99952.34
2022-09-06T19:01:03.200Z,99834.25
2022-09-06T19:03:31.572Z,99955.13
2022-09-06T19:06:04.418Z,99954.50
2022-09-06T19:08:31.064Z,99955.63
2022-09-06T19:11:03.308Z,99845.22
2022-09-06T19:13:30.243Z,99754.41
2022-09-06T19:15:58.001Z,99948.69
2022-09-06T19:18:26.311Z,99747.81
2022-09-06T19:21:11.325Z,99852.69
2022-09-06T19:23:48.172Z,99942.56
2022-09-06T19:26:19.099Z,100002.03
2022-09-06T19:28:55.883Z,99946.28
2022-09-06T19:31:25.711Z,99937.75
2022-09-06T19:33:52.771Z,99942.94
2022-09-06T19:36:21.543Z,99916.97
2022-09-06T19:39:05.039Z,99937.06
2022-09-06T19:41:34.293Z,99945.50
2022-09-06T19:44:01.663Z,99865.88
2022-09-06T19:46:28.311Z,99940.25
2022-09-06T19:48:58.850Z,99906.09
2022-09-06T19:51:25.916Z,99939.91
2022-09-06T19:53:55.135Z,99972.00
2022-09-06T19:56:24.912Z,99939.25
2022-09-06T19:58:55.259Z,99942.69
2022-09-06T20:01:22.572Z,99941.75
2022-09-06T20:03:49.202Z,99872.00
2022-09-06T20:06:16.037Z,99940.66
2022-09-06T20:08:42.856Z,99871.59
2022-09-06T20:11:12.502Z,99936.97
2022-09-06T20:13:39.659Z,99867.53
2022-09-06T20:16:08.558Z,99885.75
2022-09-06T20:18:35.628Z,99921.41
2022-09-06T20:21:02.818Z,99933.81
2022-09-06T20:23:30.361Z,99905.63
2022-09-06T20:26:05.127Z,99941.59
2022-09-06T20:28:32.491Z,99934.59
2022-09-06T20:31:02.289Z,99896.97
2022-09-06T20:33:29.689Z,99935.34
2022-09-06T20:36:03.903Z,99803.00
2022-09-06T20:38:39.004Z,99879.75
2022-09-06T20:41:08.163Z,99768.69
2022-09-06T20:43:36.726Z,99930.16
2022-09-06T20:46:11.505Z,99612.94
2022-09-06T20:48:43.587Z,99872.94
2022-09-06T20:51:19.819Z,99950.81
2022-09-06T20:53:48.409Z,99935.81
2022-09-06T20:56:21.440Z,99930.84
2022-09-06T20:58:56.540Z,99890.91
2022-09-06T21:01:25.363Z,99859.94
2022-09-06T21:03:54.684Z,99930.47
2022-09-06T21:06:22.493Z,99935.41
2022-09-06T21:08:49.941Z,99703.31
2022-09-06T21:11:17.208Z,99912.34
2022-09-06T21:13:44.079Z,99927.28
2022-09-06T21:16:11.097Z,99865.81
2022-09-06T21:18:37.686Z,99890.00
2022-09-06T21:21:06.667Z,99923.00
2022-09-06T21:23:35.991Z,99919.41
2022-09-06T21:26:08.457Z,99740.13
2022-09-06T21:28:36.884Z,99860.91
2022-09-06T21:31:05.967Z,99966.34
2022-09-06T21:33:33.712Z,99739.69
2022-09-06T21:36:07.061Z,99899.53
2022-09-06T21:38:34.747Z,99908.88
2022-09-06T21:41:08.528Z,99904.75
2022-09-06T21:43:37.203Z,99780.97
2022-09-06T21:46:08.649Z,99927.69
2022-09-06T21:48:40.322Z,99902.88
2022-09-06T21:51:08.828Z,99837.94
2022-09-06T21:53:37.181Z,99913.09
2022-09-06T21:56:05.185Z,99928.63
2022-09-06T21:58:32.682Z,99913.09
2022-09-06T22:01:00.916Z,99880.84
2022-09-06T22:03:32.254Z,99877.50
2022-09-06T22:05:59.634Z,99762.34
2022-09-06T22:08:26.660Z,99904.13
2022-09-06T22:10:53.500Z,99732.94
2022-09-06T22:13:20.698Z,99911.72
2022-09-06T22:15:47.658Z,99798.00
2022-09-06T22:18:14.428Z,99764.06
2022-09-06T22:20:41.192Z,99907.25
2022-09-06T22:23:09.983Z,99860.31
2022-09-06T22:25:36.812Z,99925.84
2022-09-06T22:28:03.809Z,99766.78
2022-09-06T22:30:31.063Z,99901.66
2022-09-06T22:32:58.193Z,99876.59
2022-09-06T22:35:24.988Z,99821.13
2022-09-06T22:37:51.870Z,99890.56
2022-09-06T22:40:19.071Z,99895.66
2022-09-06T22:42:46.253Z,99776.09
2022-09-06T22:45:13.021Z,99891.19
2022-09-06T22:47:39.782Z,99742.72
2022-09-06T22:50:07.302Z,99871.81
2022-09-06T22:52:34.063Z,99887.44
2022-09-06T22:55:00.811Z,99848.13
2022-09-06T22:57:27.561Z,99820.81
2022-09-06T22:59:54.347Z,99885.03
2022-09-06T23:02:21.137Z,99609.72
2022-09-06T23:04:47.927Z,99822.81
2022-09-06T23:07:14.736Z,99783.84
2022-09-06T23:09:42.360Z,99833.47
2022-09-06T23:12:09.112Z,99810.28
2022-09-06T23:14:35.897Z,99786.94
2022-09-06T23:17:02.667Z,99884.34
2022-09-06T23:19:29.436Z,99819.84
2022-09-06T23:22:00.023Z,99897.47
2022-09-06T23:24:30.154Z,99898.72
2022-09-06T23:26:57.326Z,99863.25
2022-09-06T23:29:24.054Z,99859.16
2022-09-06T23:31:50.907Z,99799.66
2022-09-06T23:34:17.860Z,99871.56
2022-09-06T23:36:45.354Z,99871.47
2022-09-06T23:39:12.248Z,99871.31
2022-09-06T23:41:38.969Z,99870.78
2022-09-06T23:44:05.707Z,99869.25
2022-09-06T23:46:32.789Z,99866.03
2022-09-06T23:48:59.724Z,99728.63
2022-09-06T23:51:26.624Z,99762.06
2022-09-06T23:53:53.372Z,99850.47
2022-09-06T23:56:20.861Z,99718.25
2022-09-06T23:58:47.696Z,99838.06
